Time;durP1;ratioP1;P1;durP2;ratioP2;P2;SDS_P1;SDS_P2;PMS_P1;PMS_P2;Temp;Humidity;BMP_temperature;BMP_pressure;BME280_temperature;BME280_humidity;BME280_pressure;Samples;Min_cycle;Max_cycle;Signal;HPM_P1;HPM_P2
2021/11/02 00:04:27;;;;;;;37.25;18.77;;;;;;;7.85;100.00;97886.33;4276834;81;28509;-80
2021/11/02 00:10:29;;;;;;;33.98;18.50;;;;;;;7.79;100.00;97880.91;4291411;81;28471;-80
2021/11/02 00:16:31;;;;;;;36.98;18.57;;;;;;;7.72;100.00;97879.45;4282835;81;28481;-80
2021/11/02 00:22:35;;;;;;;34.88;17.57;;;;;;;7.61;100.00;97867.23;4290915;81;28506;-83
2021/11/02 00:28:36;;;;;;;34.60;17.95;;;;;;;7.77;100.00;97866.14;4303055;81;28467;-82
2021/11/02 00:34:38;;;;;;;40.88;21.00;;;;;;;7.91;100.00;97864.79;4306545;81;28554;-82
2021/11/02 00:40:41;;;;;;;37.05;19.57;;;;;;;7.96;100.00;97854.67;4300884;81;28533;-83
2021/11/02 00:46:42;;;;;;;39.40;20.37;;;;;;;8.01;100.00;97856.10;4319454;81;28458;-81
2021/11/02 00:52:45;;;;;;;38.08;19.35;;;;;;;8.07;100.00;97850.30;4303573;81;28453;-81
2021/11/02 00:58:46;;;;;;;38.83;19.62;;;;;;;8.15;100.00;97845.05;4313264;81;28524;-82
2021/11/02 01:04:48;;;;;;;33.25;17.57;;;;;;;8.11;100.00;97838.58;4325720;81;28542;-82
2021/11/02 01:10:49;;;;;;;30.02;15.78;;;;;;;8.02;100.00;97838.16;4327824;81;28463;-82
2021/11/02 01:16:51;;;;;;;35.88;18.00;;;;;;;8.06;100.00;97825.38;4235246;82;28499;-81
2021/11/02 01:22:53;;;;;;;40.05;20.52;;;;;;;8.06;100.00;97820.03;4250425;82;28453;-81
2021/11/02 01:28:55;;;;;;;38.95;19.27;;;;;;;7.97;100.00;97816.68;4276341;82;28497;-82
2021/11/02 01:34:57;;;;;;;35.73;19.25;;;;;;;7.99;100.00;97810.55;4249873;82;28550;-82
2021/11/02 01:40:59;;;;;;;33.67;17.25;;;;;;;8.11;100.00;97813.15;4243758;82;28570;-81
2021/11/02 01:47:01;;;;;;;33.70;16.67;;;;;;;8.17;100.00;97816.16;4245807;82;28580;-82
2021/11/02 01:53:04;;;;;;;39.92;19.27;;;;;;;8.10;100.00;97812.33;4230097;82;28535;-83
2021/11/02 01:59:06;;;;;;;38.02;19.52;;;;;;;8.18;100.00;97791.04;4229821;83;28473;-81
2021/11/02 02:05:44;;;;;;;40.15;19.27;;;;;;;8.22;100.00;97780.11;4215170;82;28563;-84
2021/11/02 02:11:57;;;;;;;35.88;18.57;;;;;;;8.17;100.00;97764.78;4183562;84;28456;-83
2021/11/02 02:18:28;;;;;;;31.12;16.73;;;;;;;8.30;100.00;97763.62;4185977;82;28482;-81
2021/11/02 02:25:18;;;;;;;30.72;16.30;;;;;;;8.26;100.00;97759.80;4225735;83;28484;-81
2021/11/02 02:31:21;;;;;;;34.65;16.52;;;;;;;8.33;100.00;97759.10;4259672;83;28522;-80
2021/11/02 02:37:25;;;;;;;31.60;17.32;;;;;;;8.42;100.00;97755.45;4240201;83;28472;-82
2021/11/02 02:43:30;;;;;;;33.23;18.27;;;;;;;8.28;100.00;97763.06;4258063;83;28474;-82
2021/11/02 02:49:33;;;;;;;31.85;16.70;;;;;;;8.15;100.00;97764.73;4281003;83;30453;-82
2021/11/02 02:55:35;;;;;;;31.57;16.40;;;;;;;8.10;100.00;97765.48;4112768;85;28590;-82
2021/11/02 03:01:38;;;;;;;26.80;15.03;;;;;;;8.16;100.00;97763.67;4255767;83;28497;-82
2021/11/02 03:07:41;;;;;;;31.57;16.80;;;;;;;8.05;100.00;97760.86;4158614;85;28521;-83
2021/11/02 03:13:47;;;;;;;34.05;18.05;;;;;;;8.14;100.00;97752.41;4188135;84;28527;-82
2021/11/02 03:48:01;;;;;;;31.77;16.93;;;;;;;8.00;100.00;97746.08;4291806;81;28449;-83
2021/11/02 03:57:56;;;;;;;31.60;17.67;;;;;;;7.95;100.00;97739.30;4293868;82;28431;-82
2021/11/02 06:03:26;;;;;;;34.30;17.15;;;;;;;7.80;100.00;97664.45;4276064;81;28480;-83
2021/11/02 06:09:26;;;;;;;33.78;18.17;;;;;;;7.98;100.00;97658.53;4293523;81;28530;-83
2021/11/02 06:28:19;;;;;;;29.20;15.58;;;;;;;7.85;100.00;97674.42;4250613;82;28496;-84
2021/11/02 06:47:49;;;;;;;26.33;15.70;;;;;;;8.03;100.00;97695.27;4197399;83;28539;-85
2021/11/02 07:19:19;;;;;;;29.95;16.55;;;;;;;8.06;100.00;97715.63;4273999;81;28471;-85
2021/11/02 08:48:31;;;;;;;35.95;19.92;;;;;;;8.63;100.00;97700.30;4301219;81;28431;-82
2021/11/02 08:54:36;;;;;;;35.88;19.82;;;;;;;8.67;100.00;97695.77;4300084;81;28578;-83
2021/11/02 09:00:42;;;;;;;33.90;19.10;;;;;;;8.54;100.00;97700.45;4301274;81;28458;-81
2021/11/02 09:06:45;;;;;;;30.47;17.87;;;;;;;8.69;100.00;97695.80;4309118;81;28518;-83
2021/11/02 09:12:53;;;;;;;33.18;19.52;;;;;;;8.90;100.00;97698.69;4278732;81;50745;-83
2021/11/02 09:18:55;;;;;;;36.85;21.37;;;;;;;9.02;100.00;97702.56;4230243;82;28514;-84
2021/11/02 09:25:00;;;;;;;36.20;20.60;;;;;;;9.10;100.00;97699.95;4299533;81;28455;-82
2021/11/02 09:31:04;;;;;;;34.33;20.65;;;;;;;9.03;100.00;97697.48;4302922;81;28526;-82
2021/11/02 09:37:35;;;;;;;38.67;20.82;;;;;;;9.25;100.00;97689.89;4290539;81;28538;-82
2021/11/02 09:44:24;;;;;;;41.40;21.40;;;;;;;9.07;100.00;97695.89;4182584;84;28464;-82
2021/11/02 09:51:02;;;;;;;37.13;20.17;;;;;;;9.26;100.00;97696.31;4288998;81;28472;-83
2021/11/02 09:57:20;;;;;;;38.35;21.48;;;;;;;9.30;100.00;97696.09;4290174;81;28505;-84
2021/11/02 10:03:48;;;;;;;37.42;21.00;;;;;;;9.37;100.00;97698.56;4301778;81;28500;-79
2021/11/02 10:10:03;;;;;;;43.40;22.60;;;;;;;9.43;100.00;97705.59;4312176;81;28465;-79
2021/11/02 10:16:17;;;;;;;36.58;20.62;;;;;;;9.45;100.00;97707.48;4299468;81;28501;-80
2021/11/02 10:22:58;;;;;;;34.05;18.85;;;;;;;9.49;100.00;97699.73;4283701;81;28561;-81
2021/11/02 10:29:43;;;;;;;31.68;18.48;;;;;;;9.58;100.00;97694.17;4252647;82;28524;-80
2021/11/02 10:36:09;;;;;;;31.90;18.60;;;;;;;9.47;100.00;97689.25;4270555;81;28487;-77
2021/11/02 10:42:25;;;;;;;29.52;17.50;;;;;;;9.51;100.00;97692.75;4274554;82;28580;-79
2021/11/02 10:48:46;;;;;;;35.50;18.95;;;;;;;9.54;100.00;97692.27;4262355;82;28569;-80
2021/11/02 10:55:18;;;;;;;35.60;21.33;;;;;;;9.66;100.00;97692.88;4286600;82;28455;-79
2021/11/02 11:01:26;;;;;;;37.75;22.70;;;;;;;9.66;100.00;97690.19;4283637;81;28487;-77
2021/11/02 11:07:43;;;;;;;34.30;20.27;;;;;;;9.66;100.00;97692.05;4280623;81;28525;-79
2021/11/02 11:13:49;;;;;;;37.63;20.77;;;;;;;9.67;100.00;97693.15;4290461;81;28517;-80
2021/11/02 11:20:07;;;;;;;31.82;18.87;;;;;;;9.74;100.00;97690.23;4300082;81;28451;-78
2021/11/02 11:26:09;;;;;;;33.67;19.82;;;;;;;9.73;100.00;97688.62;4300250;81;28540;-80
2021/11/02 11:32:13;;;;;;;31.75;18.95;;;;;;;9.87;100.00;97690.32;4297099;81;28536;-78
2021/11/02 11:38:16;;;;;;;26.00;16.30;;;;;;;9.78;100.00;97687.30;4308467;81;28479;-81
2021/11/02 11:44:20;;;;;;;30.57;17.30;;;;;;;9.60;100.00;97681.82;4299618;81;28504;-83
2021/11/02 11:50:28;;;;;;;32.93;18.75;;;;;;;9.66;100.00;97676.77;4301459;81;28518;-80
2021/11/02 11:56:36;;;;;;;;;;;;;;;9.52;100.00;97672.38;4309712;81;28525;-79
2021/11/02 12:03:10;;;;;;;28.90;16.90;;;;;;;9.41;100.00;97678.75;4303603;81;20220;-79
2021/11/02 12:09:22;;;;;;;30.47;17.43;;;;;;;9.48;100.00;97672.09;4300757;81;28588;-80
2021/11/02 12:15:25;;;;;;;31.10;17.73;;;;;;;9.48;100.00;97672.63;4188073;83;28550;-83
2021/11/02 12:21:30;;;;;;;36.15;19.23;;;;;;;9.57;100.00;97683.69;4299909;81;28461;-80
2021/11/02 12:27:42;;;;;;;34.50;19.92;;;;;;;9.62;100.00;97682.36;4275682;81;28475;-80
2021/11/02 12:33:58;;;;;;;32.85;18.80;;;;;;;9.54;100.00;97672.14;4307870;81;28573;-80
2021/11/02 12:39:55;;;;;;;30.95;18.40;;;;;;;9.56;100.00;97679.39;4303133;81;28468;-80
2021/11/02 12:46:02;;;;;;;32.23;18.48;;;;;;;9.17;100.00;97681.78;4311631;81;28451;-84
2021/11/02 12:52:11;;;;;;;29.20;16.73;;;;;;;9.24;100.00;97674.31;4305433;81;28555;-85
2021/11/02 12:58:18;;;;;;;31.05;18.65;;;;;;;8.95;100.00;97673.25;4294430;82;28452;-84
2021/11/02 13:04:21;;;;;;;32.05;18.37;;;;;;;9.10;100.00;97667.22;4309234;81;28491;-84
2021/11/02 13:10:22;;;;;;;31.93;17.23;;;;;;;9.15;100.00;97652.53;4317303;81;28490;-85
2021/11/02 13:16:26;;;;;;;29.50;16.70;;;;;;;9.19;100.00;97660.33;4297876;82;28512;-85
2021/11/02 13:22:28;;;;;;;28.50;16.67;;;;;;;9.32;100.00;97663.13;4305954;81;28451;-85
2021/11/02 13:28:31;;;;;;;29.63;17.37;;;;;;;9.46;100.00;97672.06;4295497;81;28441;-84
2021/11/02 13:34:40;;;;;;;33.50;18.77;;;;;;;9.40;100.00;97663.17;4312129;81;28529;-85
2021/11/02 13:40:41;;;;;;;33.80;18.98;;;;;;;9.39;100.00;97668.81;4287271;81;28550;-87
2021/11/02 13:46:47;;;;;;;30.82;17.40;;;;;;;9.41;100.00;97665.33;4314659;81;28462;-88
2021/11/02 13:52:52;;;;;;;29.82;17.02;;;;;;;9.16;100.00;97666.73;4307324;81;28458;-86
2021/11/02 13:58:53;;;;;;;28.17;16.17;;;;;;;9.31;100.00;97673.58;4304001;81;28522;-87
2021/11/02 14:04:56;;;;;;;27.40;16.55;;;;;;;9.14;100.00;97678.25;4311693;81;28453;-86
2021/11/02 14:11:01;;;;;;;26.90;16.55;;;;;;;9.15;100.00;97673.98;4302562;81;28532;-83
2021/11/02 14:17:18;;;;;;;26.10;15.53;;;;;;;9.19;100.00;97676.42;4291739;81;28491;-86
2021/11/02 14:23:31;;;;;;;24.80;14.90;;;;;;;9.05;100.00;97679.26;4311615;80;28518;-85
2021/11/02 14:29:55;;;;;;;24.20;14.75;;;;;;;9.08;100.00;97676.61;4303050;81;28441;-83
2021/11/02 14:36:04;;;;;;;25.30;15.90;;;;;;;9.12;100.00;97677.19;4308845;82;28522;-85
2021/11/02 14:42:06;;;;;;;28.23;17.40;;;;;;;8.96;100.00;97678.92;4297287;82;28449;-84
2021/11/02 14:48:32;;;;;;;28.50;16.10;;;;;;;9.15;100.00;97679.86;4308562;81;28497;-83
2021/11/02 14:54:44;;;;;;;29.60;17.00;;;;;;;9.09;100.00;97679.56;4309096;81;28450;-81
2021/11/02 15:00:47;;;;;;;30.95;16.77;;;;;;;9.10;100.00;97683.31;4315168;82;28514;-84
2021/11/02 15:06:58;;;;;;;35.25;20.30;;;;;;;9.22;100.00;97691.75;4306224;81;28439;-83
2021/11/02 15:13:00;;;;;;;33.83;20.17;;;;;;;9.04;100.00;97684.34;4311250;82;28516;-82
2021/11/02 15:19:05;;;;;;;31.62;19.17;;;;;;;9.04;100.00;97685.69;4294147;81;28487;-83
2021/11/02 15:25:08;;;;;;;29.48;17.62;;;;;;;8.93;100.00;97694.97;4265530;83;28617;-85
2021/11/02 15:31:09;;;;;;;33.95;19.98;;;;;;;8.95;100.00;97707.31;4273664;83;28547;-79
2021/11/02 15:37:36;;;;;;;32.90;19.62;;;;;;;8.98;100.00;97700.92;4273551;82;28523;-81
2021/11/02 15:43:52;;;;;;;33.65;18.57;;;;;;;8.87;100.00;97705.36;4261793;83;28454;-77
2021/11/02 15:50:10;;;;;;;33.20;18.30;;;;;;;8.83;100.00;97706.94;4223392;83;28587;-80
2021/11/02 15:56:12;;;;;;;30.77;18.10;;;;;;;8.76;100.00;97701.77;4263978;83;28483;-81
2021/11/02 16:02:15;;;;;;;34.35;20.37;;;;;;;8.64;100.00;97700.57;4294294;82;28490;-82
2021/11/02 16:08:22;;;;;;;33.63;20.30;;;;;;;8.55;100.00;97708.77;4168450;84;29012;-81
2021/11/02 16:14:25;;;;;;;34.60;19.82;;;;;;;8.59;100.00;97703.72;4314731;82;28518;-83
2021/11/02 16:20:34;;;;;;;34.90;19.23;;;;;;;8.61;100.00;97697.58;4265762;82;28506;-84
2021/11/02 16:26:41;;;;;;;48.70;22.37;;;;;;;8.52;100.00;97694.55;4164868;84;28497;-86
2021/11/02 16:32:46;;;;;;;40.92;20.52;;;;;;;8.57;100.00;97699.95;4264144;82;28463;-86
2021/11/02 16:38:55;;;;;;;39.48;20.65;;;;;;;8.54;100.00;97703.65;4222155;84;28500;-87
2021/11/02 16:45:00;;;;;;;42.67;20.35;;;;;;;8.71;100.00;97701.70;4238665;83;28478;-87
2021/11/02 16:51:02;;;;;;;34.00;19.57;;;;;;;8.76;100.00;97711.16;4291342;82;28550;-86
2021/11/02 16:57:22;;;;;;;36.00;20.57;;;;;;;8.74;100.00;97727.99;4281154;83;28511;-87
2021/11/02 17:03:24;;;;;;;29.85;18.67;;;;;;;8.60;100.00;97734.81;4286865;83;28881;-87
2021/11/02 17:09:28;;;;;;;32.23;19.17;;;;;;;8.60;100.00;97740.99;4289563;83;28510;-82
2021/11/02 17:15:59;;;;;;;26.05;15.72;;;;;;;8.63;100.00;97747.18;4231401;83;28476;-82
2021/11/02 17:22:00;;;;;;;25.88;15.60;;;;;;;8.51;100.00;97745.16;4241907;82;28529;-82
2021/11/02 17:28:05;;;;;;;23.98;14.45;;;;;;;8.70;100.00;97760.38;4301544;81;28561;-82
2021/11/02 17:34:20;;;;;;;24.00;13.62;;;;;;;8.79;100.00;97765.58;4312688;81;28510;-83
2021/11/02 17:40:20;;;;;;;22.05;13.45;;;;;;;8.74;100.00;97764.17;4303384;81;28501;-81
2021/11/02 17:46:24;;;;;;;23.65;14.07;;;;;;;8.89;100.00;97777.48;4278294;81;28435;-82
2021/11/02 17:52:26;;;;;;;26.77;15.88;;;;;;;8.91;100.00;97782.87;4306357;81;28530;-81
2021/11/02 17:58:28;;;;;;;23.67;14.60;;;;;;;8.77;100.00;97786.98;4309209;81;28536;-82
2021/11/02 18:04:32;;;;;;;24.07;14.50;;;;;;;8.85;100.00;97789.23;4304446;81;28591;-83
2021/11/02 18:10:36;;;;;;;22.37;13.30;;;;;;;8.77;100.00;97785.64;4297222;81;28525;-86
2021/11/02 18:16:39;;;;;;;21.30;12.50;;;;;;;8.81;100.00;97792.66;4312213;81;28483;-79
2021/11/02 18:22:46;;;;;;;21.95;13.22;;;;;;;8.77;100.00;97794.51;4270917;81;28466;-86
2021/11/02 18:28:49;;;;;;;21.05;13.18;;;;;;;8.92;100.00;97792.53;4264100;82;28493;-81
2021/11/02 18:34:52;;;;;;;20.23;12.47;;;;;;;8.99;100.00;97795.53;4285397;82;28455;-84
2021/11/02 18:40:56;;;;;;;18.65;11.68;;;;;;;8.88;100.00;97795.97;4252416;82;28540;-85
2021/11/02 18:47:00;;;;;;;18.15;10.63;;;;;;;8.77;100.00;97792.34;4249110;82;28551;-83
2021/11/02 18:53:02;;;;;;;19.15;10.63;;;;;;;8.76;100.00;97796.91;4292631;81;28497;-82
2021/11/02 18:59:03;;;;;;;20.55;11.53;;;;;;;8.71;100.00;97812.12;4277272;81;28536;-85
2021/11/02 19:05:10;;;;;;;24.43;13.75;;;;;;;8.68;100.00;97809.91;4292416;82;28543;-83
2021/11/02 19:11:12;;;;;;;19.92;11.68;;;;;;;8.66;100.00;97815.55;4287424;81;28624;-81
2021/11/02 19:17:14;;;;;;;18.35;11.08;;;;;;;8.63;100.00;97817.36;4286314;83;28471;-80
2021/11/02 19:23:16;;;;;;;18.75;11.08;;;;;;;8.58;100.00;97822.13;4248108;81;28518;-80
2021/11/02 19:29:22;;;;;;;17.50;11.30;;;;;;;8.55;100.00;97830.66;4254466;82;28475;-80
2021/11/02 19:35:24;;;;;;;20.17;12.00;;;;;;;8.51;100.00;97824.98;4227143;82;28508;-81
2021/11/02 19:41:26;;;;;;;22.87;12.53;;;;;;;8.44;100.00;97831.04;4219554;82;28586;-82
2021/11/02 19:47:28;;;;;;;20.52;12.63;;;;;;;8.44;100.00;97837.73;4245582;82;28449;-81
2021/11/02 19:53:32;;;;;;;20.32;12.10;;;;;;;8.32;100.00;97843.18;4230185;82;28587;-83
2021/11/02 19:59:35;;;;;;;23.00;12.77;;;;;;;8.28;100.00;97851.95;4258079;82;28529;-87
2021/11/02 20:05:40;;;;;;;23.12;13.15;;;;;;;8.32;100.00;97855.23;4249331;82;28475;-83
2021/11/02 20:11:51;;;;;;;22.32;12.63;;;;;;;8.35;100.00;97864.65;4237738;82;28508;-83
2021/11/02 20:17:57;;;;;;;24.27;14.53;;;;;;;8.44;100.00;97872.55;4231662;82;28527;-83
2021/11/02 20:24:00;;;;;;;26.33;16.50;;;;;;;8.36;100.00;97872.97;4265780;82;28522;-86
2021/11/02 20:30:06;;;;;;;24.77;15.10;;;;;;;8.31;100.00;97884.41;4253779;82;28487;-85
2021/11/02 20:36:10;;;;;;;26.70;15.40;;;;;;;8.27;100.00;97893.17;4166410;84;28508;-86
2021/11/02 20:42:24;;;;;;;27.93;15.40;;;;;;;8.25;100.00;97893.95;4268564;83;35782;-85
2021/11/02 20:48:31;;;;;;;26.68;15.13;;;;;;;8.20;100.00;97901.38;4261444;82;28512;-84
2021/11/02 20:54:37;;;;;;;27.82;16.48;;;;;;;8.36;100.00;97901.88;4267608;83;28480;-85
2021/11/02 21:00:41;;;;;;;26.82;16.65;;;;;;;8.34;100.00;97908.02;4257438;82;28465;-87
2021/11/02 21:06:46;;;;;;;28.52;16.90;;;;;;;8.28;100.00;97910.34;4274123;83;28507;-89
2021/11/02 21:12:48;;;;;;;26.12;16.07;;;;;;;8.21;100.00;97914.50;4268953;83;28521;-86
2021/11/02 21:19:07;;;;;;;27.90;15.70;;;;;;;8.19;100.00;97914.48;4259594;82;28459;-85
2021/11/02 21:25:09;;;;;;;27.62;15.75;;;;;;;8.19;100.00;97922.52;4263659;82;28467;-86
2021/11/02 21:31:13;;;;;;;28.25;16.97;;;;;;;8.20;100.00;97916.90;4273323;82;28512;-86
2021/11/02 21:37:16;;;;;;;28.60;16.55;;;;;;;8.15;100.00;97929.39;4273382;82;28534;-85
2021/11/02 21:43:22;;;;;;;27.62;15.88;;;;;;;8.17;100.00;97932.62;4273015;82;28548;-86
2021/11/02 21:49:43;;;;;;;30.57;15.80;;;;;;;8.16;100.00;97926.48;4278308;82;28467;-87
2021/11/02 21:55:54;;;;;;;26.62;14.90;;;;;;;8.13;100.00;97932.84;4265918;82;28449;-85
2021/11/02 22:01:57;;;;;;;27.32;15.05;;;;;;;8.09;100.00;97930.66;4263379;82;28530;-86
2021/11/02 22:07:59;;;;;;;28.52;16.90;;;;;;;8.16;100.00;97934.52;4262843;83;28562;-86
2021/11/02 22:14:03;;;;;;;32.30;19.00;;;;;;;8.07;100.00;97939.47;4271664;83;28437;-87
2021/11/02 22:20:06;;;;;;;28.07;16.45;;;;;;;7.98;100.00;97945.44;4273443;81;28474;-84
2021/11/02 22:26:08;;;;;;;27.93;16.52;;;;;;;8.09;100.00;97950.73;4310414;81;28525;-83
2021/11/02 22:32:10;;;;;;;25.80;15.20;;;;;;;8.11;100.00;97951.02;4300424;81;28463;-84
2021/11/02 22:38:13;;;;;;;29.48;17.82;;;;;;;8.03;100.00;97959.72;4298398;81;28514;-83
2021/11/02 22:44:15;;;;;;;28.20;17.35;;;;;;;8.04;100.00;97968.03;4313034;81;28457;-84
2021/11/02 22:50:22;;;;;;;27.60;16.02;;;;;;;7.99;100.00;97968.47;4313491;81;28486;-86
2021/11/02 22:56:23;;;;;;;27.10;15.90;;;;;;;7.97;100.00;97970.07;4183958;84;28556;-84
2021/11/02 23:02:25;;;;;;;32.42;16.30;;;;;;;7.96;100.00;97976.45;4303532;81;28519;-83
2021/11/02 23:08:31;;;;;;;29.32;17.15;;;;;;;7.98;100.00;97976.22;4312755;81;28458;-83
2021/11/02 23:14:33;;;;;;;32.25;18.23;;;;;;;8.01;100.00;97981.91;4311018;81;28464;-83
2021/11/02 23:20:37;;;;;;;27.82;15.80;;;;;;;8.10;100.00;97983.66;4302053;81;28469;-83
2021/11/02 23:26:45;;;;;;;30.15;16.82;;;;;;;8.06;100.00;97977.97;4265345;82;28486;-83
2021/11/02 23:32:49;;;;;;;31.15;16.70;;;;;;;8.08;100.00;97987.94;4272395;82;28549;-84
2021/11/02 23:38:51;;;;;;;35.85;18.82;;;;;;;8.14;100.00;97996.87;4262539;82;28463;-84
2021/11/02 23:44:53;;;;;;;32.65;19.45;;;;;;;8.16;100.00;98005.47;4274894;82;28583;-85
2021/11/02 23:50:55;;;;;;;32.35;17.52;;;;;;;8.08;100.00;98011.20;4266941;82;28470;-84
2021/11/02 23:56:57;;;;;;;33.50;17.35;;;;;;;8.10;100.00;98013.11;4167773;84;28487;-83
